sensor_id;sensor_type;location;lat;lon;timestamp;P1;durP1;ratioP1;P2;durP2;ratioP2
38717;SDS011;24468;52.128;9.278;2023-11-18T00:00:24;11.68;;;9.13;;
38717;SDS011;24468;52.128;9.278;2023-11-18T00:02:49;13.30;;;10.43;;
38717;SDS011;24468;52.128;9.278;2023-11-18T00:05:15;15.20;;;10.30;;
38717;SDS011;24468;52.128;9.278;2023-11-18T00:07:41;11.88;;;9.38;;
38717;SDS011;24468;52.128;9.278;2023-11-18T00:10:07;13.80;;;10.15;;
38717;SDS011;24468;52.128;9.278;2023-11-18T00:12:37;14.57;;;10.02;;
38717;SDS011;24468;52.128;9.278;2023-11-18T00:15:06;16.55;;;10.95;;
38717;SDS011;24468;52.128;9.278;2023-11-18T00:17:36;13.82;;;10.15;;
38717;SDS011;24468;52.128;9.278;2023-11-18T00:20:03;13.65;;;10.25;;
38717;SDS011;24468;52.128;9.278;2023-11-18T00:22:37;15.65;;;10.75;;
38717;SDS011;24468;52.128;9.278;2023-11-18T00:25:03;18.20;;;11.43;;
38717;SDS011;24468;52.128;9.278;2023-11-18T00:27:35;17.50;;;11.20;;
38717;SDS011;24468;52.128;9.278;2023-11-18T00:30:02;18.42;;;11.25;;
38717;SDS011;24468;52.128;9.278;2023-11-18T00:32:38;14.57;;;10.65;;
38717;SDS011;24468;52.128;9.278;2023-11-18T00:35:04;17.38;;;10.82;;
38717;SDS011;24468;52.128;9.278;2023-11-18T00:37:31;15.98;;;12.05;;
38717;SDS011;24468;52.128;9.278;2023-11-18T00:39:58;19.83;;;12.85;;
38717;SDS011;24468;52.128;9.278;2023-11-18T00:42:23;21.60;;;13.32;;
38717;SDS011;24468;52.128;9.278;2023-11-18T00:44:49;21.55;;;14.45;;
38717;SDS011;24468;52.128;9.278;2023-11-18T00:47:15;28.70;;;16.73;;
38717;SDS011;24468;52.128;9.278;2023-11-18T00:49:40;24.85;;;16.63;;
38717;SDS011;24468;52.128;9.278;2023-11-18T00:52:06;26.02;;;16.50;;
38717;SDS011;24468;52.128;9.278;2023-11-18T00:54:32;24.63;;;14.88;;
38717;SDS011;24468;52.128;9.278;2023-11-18T00:56:57;19.90;;;14.52;;
38717;SDS011;24468;52.128;9.278;2023-11-18T00:59:23;27.45;;;16.25;;
38717;SDS011;24468;52.128;9.278;2023-11-18T01:01:48;23.67;;;15.57;;
38717;SDS011;24468;52.128;9.278;2023-11-18T01:04:14;20.10;;;13.48;;
38717;SDS011;24468;52.128;9.278;2023-11-18T01:06:40;19.45;;;14.55;;
38717;SDS011;24468;52.128;9.278;2023-11-18T01:09:07;20.73;;;14.50;;
38717;SDS011;24468;52.128;9.278;2023-11-18T01:11:34;20.38;;;14.40;;
38717;SDS011;24468;52.128;9.278;2023-11-18T01:14:00;19.40;;;14.45;;
38717;SDS011;24468;52.128;9.278;2023-11-18T01:16:27;24.98;;;15.73;;
38717;SDS011;24468;52.128;9.278;2023-11-18T01:18:53;19.40;;;14.05;;
38717;SDS011;24468;52.128;9.278;2023-11-18T01:21:19;19.50;;;14.68;;
38717;SDS011;24468;52.128;9.278;2023-11-18T01:23:45;19.75;;;13.63;;
38717;SDS011;24468;52.128;9.278;2023-11-18T01:26:11;20.63;;;13.63;;
38717;SDS011;24468;52.128;9.278;2023-11-18T01:28:37;18.85;;;12.93;;
38717;SDS011;24468;52.128;9.278;2023-11-18T01:31:06;22.08;;;13.00;;
38717;SDS011;24468;52.128;9.278;2023-11-18T01:33:34;17.30;;;12.55;;
38717;SDS011;24468;52.128;9.278;2023-11-18T01:36:05;19.52;;;13.38;;
38717;SDS011;24468;52.128;9.278;2023-11-18T01:38:33;19.02;;;13.57;;
38717;SDS011;24468;52.128;9.278;2023-11-18T01:41:03;16.90;;;12.55;;
38717;SDS011;24468;52.128;9.278;2023-11-18T01:43:30;16.52;;;12.27;;
38717;SDS011;24468;52.128;9.278;2023-11-18T01:45:57;19.38;;;12.43;;
38717;SDS011;24468;52.128;9.278;2023-11-18T01:48:35;15.55;;;11.73;;
38717;SDS011;24468;52.128;9.278;2023-11-18T01:51:02;16.33;;;12.35;;
38717;SDS011;24468;52.128;9.278;2023-11-18T01:53:31;16.23;;;12.95;;
38717;SDS011;24468;52.128;9.278;2023-11-18T01:55:58;16.92;;;12.52;;
38717;SDS011;24468;52.128;9.278;2023-11-18T01:58:24;19.85;;;13.27;;
38717;SDS011;24468;52.128;9.278;2023-11-18T02:00:50;17.45;;;12.75;;
38717;SDS011;24468;52.128;9.278;2023-11-18T02:03:17;17.48;;;12.40;;
38717;SDS011;24468;52.128;9.278;2023-11-18T02:05:43;23.35;;;13.85;;
38717;SDS011;24468;52.128;9.278;2023-11-18T02:08:09;19.58;;;13.18;;
38717;SDS011;24468;52.128;9.278;2023-11-18T02:10:39;17.75;;;11.65;;
38717;SDS011;24468;52.128;9.278;2023-11-18T02:13:22;17.92;;;12.18;;
38717;SDS011;24468;52.128;9.278;2023-11-18T02:15:53;14.93;;;11.75;;
38717;SDS011;24468;52.128;9.278;2023-11-18T02:18:22;15.80;;;11.63;;
38717;SDS011;24468;52.128;9.278;2023-11-18T02:20:54;23.27;;;15.07;;
38717;SDS011;24468;52.128;9.278;2023-11-18T02:23:24;26.38;;;17.23;;
38717;SDS011;24468;52.128;9.278;2023-11-18T02:25:52;28.58;;;18.00;;
38717;SDS011;24468;52.128;9.278;2023-11-18T02:28:18;30.00;;;19.23;;
38717;SDS011;24468;52.128;9.278;2023-11-18T02:30:47;32.53;;;18.77;;
38717;SDS011;24468;52.128;9.278;2023-11-18T02:33:16;30.27;;;18.50;;
38717;SDS011;24468;52.128;9.278;2023-11-18T02:35:54;24.17;;;15.27;;
38717;SDS011;24468;52.128;9.278;2023-11-18T02:38:31;22.00;;;14.57;;
38717;SDS011;24468;52.128;9.278;2023-11-18T02:41:06;25.65;;;16.42;;
38717;SDS011;24468;52.128;9.278;2023-11-18T02:43:37;23.08;;;13.20;;
38717;SDS011;24468;52.128;9.278;2023-11-18T02:46:05;21.35;;;13.20;;
38717;SDS011;24468;52.128;9.278;2023-11-18T02:48:33;18.77;;;12.68;;
38717;SDS011;24468;52.128;9.278;2023-11-18T02:51:00;19.88;;;13.35;;
38717;SDS011;24468;52.128;9.278;2023-11-18T02:53:26;20.20;;;14.00;;
38717;SDS011;24468;52.128;9.278;2023-11-18T02:55:52;24.20;;;15.88;;
38717;SDS011;24468;52.128;9.278;2023-11-18T02:58:18;26.70;;;14.65;;
38717;SDS011;24468;52.128;9.278;2023-11-18T03:00:45;21.95;;;14.10;;
38717;SDS011;24468;52.128;9.278;2023-11-18T03:03:11;20.77;;;14.73;;
38717;SDS011;24468;52.128;9.278;2023-11-18T03:05:37;25.08;;;16.73;;
38717;SDS011;24468;52.128;9.278;2023-11-18T03:08:03;31.08;;;19.13;;
38717;SDS011;24468;52.128;9.278;2023-11-18T03:10:31;26.75;;;16.00;;
38717;SDS011;24468;52.128;9.278;2023-11-18T03:13:00;27.42;;;17.60;;
38717;SDS011;24468;52.128;9.278;2023-11-18T03:15:26;28.17;;;17.55;;
38717;SDS011;24468;52.128;9.278;2023-11-18T03:17:52;25.75;;;16.65;;
38717;SDS011;24468;52.128;9.278;2023-11-18T03:20:19;26.95;;;16.65;;
38717;SDS011;24468;52.128;9.278;2023-11-18T03:22:48;28.10;;;16.08;;
38717;SDS011;24468;52.128;9.278;2023-11-18T03:25:15;28.00;;;17.25;;
38717;SDS011;24468;52.128;9.278;2023-11-18T03:27:42;36.33;;;20.17;;
38717;SDS011;24468;52.128;9.278;2023-11-18T03:30:11;41.25;;;21.13;;
38717;SDS011;24468;52.128;9.278;2023-11-18T03:32:38;35.67;;;19.25;;
38717;SDS011;24468;52.128;9.278;2023-11-18T03:35:05;32.75;;;20.35;;
38717;SDS011;24468;52.128;9.278;2023-11-18T03:37:40;31.65;;;18.35;;
38717;SDS011;24468;52.128;9.278;2023-11-18T03:40:07;36.78;;;19.27;;
38717;SDS011;24468;52.128;9.278;2023-11-18T03:42:37;32.85;;;18.90;;
38717;SDS011;24468;52.128;9.278;2023-11-18T03:45:05;37.70;;;20.92;;
38717;SDS011;24468;52.128;9.278;2023-11-18T03:47:31;40.45;;;22.23;;
38717;SDS011;24468;52.128;9.278;2023-11-18T03:49:57;39.15;;;21.55;;
38717;SDS011;24468;52.128;9.278;2023-11-18T03:52:23;40.45;;;22.30;;
38717;SDS011;24468;52.128;9.278;2023-11-18T03:54:49;39.42;;;20.90;;
38717;SDS011;24468;52.128;9.278;2023-11-18T03:57:14;41.13;;;24.17;;
38717;SDS011;24468;52.128;9.278;2023-11-18T03:59:40;44.38;;;22.48;;
38717;SDS011;24468;52.128;9.278;2023-11-18T04:02:06;33.83;;;21.20;;
38717;SDS011;24468;52.128;9.278;2023-11-18T04:04:32;33.25;;;19.52;;
38717;SDS011;24468;52.128;9.278;2023-11-18T04:06:58;39.40;;;20.17;;
38717;SDS011;24468;52.128;9.278;2023-11-18T04:09:26;31.92;;;19.25;;
38717;SDS011;24468;52.128;9.278;2023-11-18T04:11:52;33.83;;;18.65;;
38717;SDS011;24468;52.128;9.278;2023-11-18T04:14:18;31.73;;;19.58;;
38717;SDS011;24468;52.128;9.278;2023-11-18T04:16:47;35.78;;;19.90;;
38717;SDS011;24468;52.128;9.278;2023-11-18T04:19:14;31.90;;;18.58;;
38717;SDS011;24468;52.128;9.278;2023-11-18T04:21:40;28.13;;;17.60;;
38717;SDS011;24468;52.128;9.278;2023-11-18T04:24:05;32.75;;;20.80;;
38717;SDS011;24468;52.128;9.278;2023-11-18T04:26:32;35.33;;;17.48;;
38717;SDS011;24468;52.128;9.278;2023-11-18T04:28:58;31.02;;;18.20;;
38717;SDS011;24468;52.128;9.278;2023-11-18T04:31:23;33.70;;;20.23;;
38717;SDS011;24468;52.128;9.278;2023-11-18T04:33:50;31.08;;;18.88;;
38717;SDS011;24468;52.128;9.278;2023-11-18T04:36:15;31.42;;;19.92;;
38717;SDS011;24468;52.128;9.278;2023-11-18T04:38:41;34.35;;;18.73;;
38717;SDS011;24468;52.128;9.278;2023-11-18T04:41:08;31.73;;;19.35;;
38717;SDS011;24468;52.128;9.278;2023-11-18T04:43:34;33.63;;;19.02;;
38717;SDS011;24468;52.128;9.278;2023-11-18T04:46:00;35.13;;;18.85;;
38717;SDS011;24468;52.128;9.278;2023-11-18T04:48:26;33.60;;;17.75;;
38717;SDS011;24468;52.128;9.278;2023-11-18T04:50:51;35.25;;;18.77;;
38717;SDS011;24468;52.128;9.278;2023-11-18T04:53:17;32.92;;;19.27;;
38717;SDS011;24468;52.128;9.278;2023-11-18T04:55:42;31.58;;;18.85;;
38717;SDS011;24468;52.128;9.278;2023-11-18T04:58:08;42.00;;;19.60;;
38717;SDS011;24468;52.128;9.278;2023-11-18T05:00:34;36.28;;;17.63;;
38717;SDS011;24468;52.128;9.278;2023-11-18T05:03:03;33.25;;;18.73;;
38717;SDS011;24468;52.128;9.278;2023-11-18T05:05:29;35.35;;;18.83;;
38717;SDS011;24468;52.128;9.278;2023-11-18T05:07:55;36.33;;;19.30;;
38717;SDS011;24468;52.128;9.278;2023-11-18T05:10:20;30.67;;;18.38;;
38717;SDS011;24468;52.128;9.278;2023-11-18T05:12:46;37.47;;;20.10;;
38717;SDS011;24468;52.128;9.278;2023-11-18T05:15:20;36.45;;;19.20;;
38717;SDS011;24468;52.128;9.278;2023-11-18T05:17:49;32.60;;;18.02;;
38717;SDS011;24468;52.128;9.278;2023-11-18T05:20:18;30.67;;;16.55;;
38717;SDS011;24468;52.128;9.278;2023-11-18T05:22:45;33.47;;;18.15;;
38717;SDS011;24468;52.128;9.278;2023-11-18T05:25:10;40.28;;;18.70;;
38717;SDS011;24468;52.128;9.278;2023-11-18T05:27:36;33.03;;;17.77;;
38717;SDS011;24468;52.128;9.278;2023-11-18T05:30:05;36.65;;;19.17;;
38717;SDS011;24468;52.128;9.278;2023-11-18T05:32:35;37.58;;;18.65;;
38717;SDS011;24468;52.128;9.278;2023-11-18T05:35:00;32.22;;;18.63;;
38717;SDS011;24468;52.128;9.278;2023-11-18T05:37:26;36.53;;;17.73;;
38717;SDS011;24468;52.128;9.278;2023-11-18T05:39:59;30.50;;;15.93;;
38717;SDS011;24468;52.128;9.278;2023-11-18T05:42:31;29.60;;;15.55;;
38717;SDS011;24468;52.128;9.278;2023-11-18T05:44:56;31.00;;;17.15;;
38717;SDS011;24468;52.128;9.278;2023-11-18T05:47:25;29.92;;;16.38;;
38717;SDS011;24468;52.128;9.278;2023-11-18T05:49:52;30.23;;;15.60;;
38717;SDS011;24468;52.128;9.278;2023-11-18T05:52:18;30.27;;;15.63;;
38717;SDS011;24468;52.128;9.278;2023-11-18T05:54:45;32.38;;;17.02;;
38717;SDS011;24468;52.128;9.278;2023-11-18T05:57:12;28.85;;;16.40;;
38717;SDS011;24468;52.128;9.278;2023-11-18T05:59:41;36.97;;;18.52;;
38717;SDS011;24468;52.128;9.278;2023-11-18T06:02:08;35.60;;;17.58;;
38717;SDS011;24468;52.128;9.278;2023-11-18T06:04:34;31.60;;;16.80;;
38717;SDS011;24468;52.128;9.278;2023-11-18T06:07:00;36.05;;;17.58;;
38717;SDS011;24468;52.128;9.278;2023-11-18T06:09:27;31.85;;;18.45;;
38717;SDS011;24468;52.128;9.278;2023-11-18T06:11:53;27.95;;;16.05;;
38717;SDS011;24468;52.128;9.278;2023-11-18T06:14:19;31.60;;;16.77;;
38717;SDS011;24468;52.128;9.278;2023-11-18T06:16:46;38.92;;;20.23;;
38717;SDS011;24468;52.128;9.278;2023-11-18T06:19:13;31.73;;;18.35;;
38717;SDS011;24468;52.128;9.278;2023-11-18T06:21:39;34.00;;;18.05;;
38717;SDS011;24468;52.128;9.278;2023-11-18T06:24:05;34.25;;;18.70;;
38717;SDS011;24468;52.128;9.278;2023-11-18T06:26:31;38.20;;;21.10;;
38717;SDS011;24468;52.128;9.278;2023-11-18T06:29:01;29.85;;;17.33;;
38717;SDS011;24468;52.128;9.278;2023-11-18T06:31:26;32.42;;;16.55;;
38717;SDS011;24468;52.128;9.278;2023-11-18T06:33:54;38.42;;;19.50;;
38717;SDS011;24468;52.128;9.278;2023-11-18T06:36:20;33.25;;;17.20;;
38717;SDS011;24468;52.128;9.278;2023-11-18T06:38:50;34.75;;;16.95;;
38717;SDS011;24468;52.128;9.278;2023-11-18T06:41:18;37.80;;;18.23;;
38717;SDS011;24468;52.128;9.278;2023-11-18T06:43:48;39.65;;;20.95;;
38717;SDS011;24468;52.128;9.278;2023-11-18T06:46:14;39.35;;;19.88;;
38717;SDS011;24468;52.128;9.278;2023-11-18T06:48:40;44.65;;;22.73;;
38717;SDS011;24468;52.128;9.278;2023-11-18T06:51:05;36.33;;;19.75;;
38717;SDS011;24468;52.128;9.278;2023-11-18T06:53:33;33.63;;;18.27;;
38717;SDS011;24468;52.128;9.278;2023-11-18T06:55:59;39.42;;;20.20;;
38717;SDS011;24468;52.128;9.278;2023-11-18T06:58:25;38.75;;;20.67;;
38717;SDS011;24468;52.128;9.278;2023-11-18T07:00:51;33.80;;;18.33;;
38717;SDS011;24468;52.128;9.278;2023-11-18T07:03:17;35.65;;;19.30;;
38717;SDS011;24468;52.128;9.278;2023-11-18T07:05:43;34.67;;;18.42;;
38717;SDS011;24468;52.128;9.278;2023-11-18T07:08:09;37.47;;;17.83;;
38717;SDS011;24468;52.128;9.278;2023-11-18T07:10:37;29.55;;;16.48;;
38717;SDS011;24468;52.128;9.278;2023-11-18T07:13:03;40.30;;;18.52;;
38717;SDS011;24468;52.128;9.278;2023-11-18T07:15:28;38.80;;;19.23;;
38717;SDS011;24468;52.128;9.278;2023-11-18T07:17:54;35.03;;;18.92;;
38717;SDS011;24468;52.128;9.278;2023-11-18T07:20:19;33.47;;;18.77;;
38717;SDS011;24468;52.128;9.278;2023-11-18T07:22:45;33.95;;;17.90;;
38717;SDS011;24468;52.128;9.278;2023-11-18T07:25:10;34.00;;;18.73;;
38717;SDS011;24468;52.128;9.278;2023-11-18T07:27:36;35.00;;;18.40;;
38717;SDS011;24468;52.128;9.278;2023-11-18T07:30:02;36.08;;;18.42;;
38717;SDS011;24468;52.128;9.278;2023-11-18T07:32:31;32.28;;;18.13;;
38717;SDS011;24468;52.128;9.278;2023-11-18T07:34:57;32.33;;;18.15;;
38717;SDS011;24468;52.128;9.278;2023-11-18T07:37:23;34.78;;;18.83;;
38717;SDS011;24468;52.128;9.278;2023-11-18T07:39:48;43.85;;;23.90;;
38717;SDS011;24468;52.128;9.278;2023-11-18T07:42:14;41.47;;;26.38;;
38717;SDS011;24468;52.128;9.278;2023-11-18T07:44:40;39.95;;;22.80;;
38717;SDS011;24468;52.128;9.278;2023-11-18T07:47:06;38.08;;;21.95;;
38717;SDS011;24468;52.128;9.278;2023-11-18T07:49:33;37.53;;;18.70;;
38717;SDS011;24468;52.128;9.278;2023-11-18T07:52:00;32.95;;;18.95;;
38717;SDS011;24468;52.128;9.278;2023-11-18T07:54:29;32.65;;;17.55;;
38717;SDS011;24468;52.128;9.278;2023-11-18T07:56:54;29.30;;;16.75;;
38717;SDS011;24468;52.128;9.278;2023-11-18T07:59:20;26.30;;;14.80;;
38717;SDS011;24468;52.128;9.278;2023-11-18T08:01:46;29.58;;;15.00;;
38717;SDS011;24468;52.128;9.278;2023-11-18T08:04:12;33.17;;;18.63;;
38717;SDS011;24468;52.128;9.278;2023-11-18T08:06:41;31.95;;;16.38;;
38717;SDS011;24468;52.128;9.278;2023-11-18T08:09:08;33.47;;;17.13;;
38717;SDS011;24468;52.128;9.278;2023-11-18T08:11:37;30.42;;;17.55;;
38717;SDS011;24468;52.128;9.278;2023-11-18T08:14:06;37.75;;;21.17;;
38717;SDS011;24468;52.128;9.278;2023-11-18T08:16:34;27.58;;;17.08;;
38717;SDS011;24468;52.128;9.278;2023-11-18T08:19:00;26.30;;;15.75;;
38717;SDS011;24468;52.128;9.278;2023-11-18T08:21:27;26.83;;;15.73;;
38717;SDS011;24468;52.128;9.278;2023-11-18T08:23:53;29.33;;;15.55;;
38717;SDS011;24468;52.128;9.278;2023-11-18T08:26:19;28.10;;;15.15;;
38717;SDS011;24468;52.128;9.278;2023-11-18T08:28:45;26.77;;;15.82;;
38717;SDS011;24468;52.128;9.278;2023-11-18T08:31:12;26.83;;;15.35;;
38717;SDS011;24468;52.128;9.278;2023-11-18T08:33:40;25.17;;;14.13;;
38717;SDS011;24468;52.128;9.278;2023-11-18T08:36:07;28.35;;;15.98;;
38717;SDS011;24468;52.128;9.278;2023-11-18T08:38:33;24.73;;;14.75;;
38717;SDS011;24468;52.128;9.278;2023-11-18T08:41:00;24.05;;;13.13;;
38717;SDS011;24468;52.128;9.278;2023-11-18T08:43:25;27.08;;;15.43;;
38717;SDS011;24468;52.128;9.278;2023-11-18T08:45:53;21.05;;;12.88;;
38717;SDS011;24468;52.128;9.278;2023-11-18T08:48:21;19.80;;;12.68;;
38717;SDS011;24468;52.128;9.278;2023-11-18T08:50:47;23.00;;;13.55;;
38717;SDS011;24468;52.128;9.278;2023-11-18T08:53:13;18.30;;;10.73;;
38717;SDS011;24468;52.128;9.278;2023-11-18T08:55:42;21.55;;;12.45;;
38717;SDS011;24468;52.128;9.278;2023-11-18T08:58:16;17.55;;;11.18;;
38717;SDS011;24468;52.128;9.278;2023-11-18T09:00:47;19.07;;;12.17;;
38717;SDS011;24468;52.128;9.278;2023-11-18T09:05:57;19.60;;;10.63;;
38717;SDS011;24468;52.128;9.278;2023-11-18T09:08:30;20.20;;;11.50;;
38717;SDS011;24468;52.128;9.278;2023-11-18T09:11:03;21.58;;;13.45;;
38717;SDS011;24468;52.128;9.278;2023-11-18T09:13:31;17.90;;;11.90;;
38717;SDS011;24468;52.128;9.278;2023-11-18T09:15:59;17.08;;;11.20;;
38717;SDS011;24468;52.128;9.278;2023-11-18T09:18:40;19.13;;;11.98;;
38717;SDS011;24468;52.128;9.278;2023-11-18T09:21:09;18.00;;;11.37;;
38717;SDS011;24468;52.128;9.278;2023-11-18T09:23:40;17.20;;;11.75;;
38717;SDS011;24468;52.128;9.278;2023-11-18T09:26:10;18.65;;;12.02;;
38717;SDS011;24468;52.128;9.278;2023-11-18T09:28:36;17.83;;;10.75;;
38717;SDS011;24468;52.128;9.278;2023-11-18T09:31:03;14.75;;;10.50;;
38717;SDS011;24468;52.128;9.278;2023-11-18T09:33:30;15.20;;;9.80;;
38717;SDS011;24468;52.128;9.278;2023-11-18T09:35:58;16.25;;;11.10;;
38717;SDS011;24468;52.128;9.278;2023-11-18T09:38:26;20.85;;;11.70;;
38717;SDS011;24468;52.128;9.278;2023-11-18T09:40:56;15.52;;;12.18;;
38717;SDS011;24468;52.128;9.278;2023-11-18T09:43:28;14.23;;;9.85;;
38717;SDS011;24468;52.128;9.278;2023-11-18T09:46:12;12.27;;;8.43;;
38717;SDS011;24468;52.128;9.278;2023-11-18T09:48:43;11.82;;;7.90;;
38717;SDS011;24468;52.128;9.278;2023-11-18T09:51:17;12.02;;;8.20;;
38717;SDS011;24468;52.128;9.278;2023-11-18T09:53:48;11.80;;;7.97;;
38717;SDS011;24468;52.128;9.278;2023-11-18T09:56:44;11.73;;;8.30;;
38717;SDS011;24468;52.128;9.278;2023-11-18T10:02:35;11.13;;;7.65;;
38717;SDS011;24468;52.128;9.278;2023-11-18T10:05:05;12.25;;;8.50;;
38717;SDS011;24468;52.128;9.278;2023-11-18T10:07:38;10.30;;;8.15;;
38717;SDS011;24468;52.128;9.278;2023-11-18T10:10:10;11.82;;;7.72;;
38717;SDS011;24468;52.128;9.278;2023-11-18T10:12:46;9.88;;;7.78;;
38717;SDS011;24468;52.128;9.278;2023-11-18T10:15:22;11.30;;;7.38;;
38717;SDS011;24468;52.128;9.278;2023-11-18T10:17:49;10.85;;;6.07;;
38717;SDS011;24468;52.128;9.278;2023-11-18T10:20:57;10.32;;;7.45;;
38717;SDS011;24468;52.128;9.278;2023-11-18T10:23:17;12.15;;;7.30;;
38717;SDS011;24468;52.128;9.278;2023-11-18T10:25:48;22.83;;;11.07;;
38717;SDS011;24468;52.128;9.278;2023-11-18T10:30:52;13.95;;;7.18;;
38717;SDS011;24468;52.128;9.278;2023-11-18T10:33:32;11.07;;;7.88;;
38717;SDS011;24468;52.128;9.278;2023-11-18T10:36:16;11.18;;;7.15;;
38717;SDS011;24468;52.128;9.278;2023-11-18T10:38:50;13.45;;;8.30;;
38717;SDS011;24468;52.128;9.278;2023-11-18T10:41:20;12.23;;;8.13;;
38717;SDS011;24468;52.128;9.278;2023-11-18T10:43:46;19.30;;;14.27;;
38717;SDS011;24468;52.128;9.278;2023-11-18T10:46:15;12.48;;;9.55;;
38717;SDS011;24468;52.128;9.278;2023-11-18T10:48:45;10.63;;;7.60;;
38717;SDS011;24468;52.128;9.278;2023-11-18T10:51:13;13.88;;;8.98;;
38717;SDS011;24468;52.128;9.278;2023-11-18T10:53:44;10.15;;;6.47;;
38717;SDS011;24468;52.128;9.278;2023-11-18T10:59:25;9.07;;;6.57;;
38717;SDS011;24468;52.128;9.278;2023-11-18T11:01:44;13.15;;;10.35;;
38717;SDS011;24468;52.128;9.278;2023-11-18T11:04:14;11.02;;;7.32;;
38717;SDS011;24468;52.128;9.278;2023-11-18T11:06:46;8.30;;;6.85;;
38717;SDS011;24468;52.128;9.278;2023-11-18T11:09:22;7.75;;;6.38;;
38717;SDS011;24468;52.128;9.278;2023-11-18T11:12:00;13.52;;;10.40;;
38717;SDS011;24468;52.128;9.278;2023-11-18T11:14:41;12.77;;;8.15;;
38717;SDS011;24468;52.128;9.278;2023-11-18T11:17:24;10.63;;;8.35;;
38717;SDS011;24468;52.128;9.278;2023-11-18T11:20:02;14.27;;;7.45;;
38717;SDS011;24468;52.128;9.278;2023-11-18T11:23:05;8.38;;;6.35;;
38717;SDS011;24468;52.128;9.278;2023-11-18T11:28:52;9.77;;;7.00;;
38717;SDS011;24468;52.128;9.278;2023-11-18T11:31:37;11.07;;;6.95;;
38717;SDS011;24468;52.128;9.278;2023-11-18T11:34:05;8.48;;;6.80;;
38717;SDS011;24468;52.128;9.278;2023-11-18T11:36:44;10.25;;;8.00;;
38717;SDS011;24468;52.128;9.278;2023-11-18T11:39:15;29.50;;;16.13;;
38717;SDS011;24468;52.128;9.278;2023-11-18T11:41:46;9.80;;;6.82;;
38717;SDS011;24468;52.128;9.278;2023-11-18T11:44:16;8.77;;;6.90;;
38717;SDS011;24468;52.128;9.278;2023-11-18T11:46:45;10.00;;;7.32;;
38717;SDS011;24468;52.128;9.278;2023-11-18T11:49:18;7.93;;;5.85;;
38717;SDS011;24468;52.128;9.278;2023-11-18T11:51:47;8.25;;;6.05;;
38717;SDS011;24468;52.128;9.278;2023-11-18T11:54:26;8.88;;;6.82;;
38717;SDS011;24468;52.128;9.278;2023-11-18T11:56:59;6.70;;;5.60;;
38717;SDS011;24468;52.128;9.278;2023-11-18T12:02:23;7.85;;;5.40;;
38717;SDS011;24468;52.128;9.278;2023-11-18T12:04:54;11.43;;;6.20;;
38717;SDS011;24468;52.128;9.278;2023-11-18T12:07:23;11.05;;;6.55;;
38717;SDS011;24468;52.128;9.278;2023-11-18T12:09:58;9.88;;;6.80;;
38717;SDS011;24468;52.128;9.278;2023-11-18T12:12:25;11.82;;;6.22;;
38717;SDS011;24468;52.128;9.278;2023-11-18T12:14:53;7.78;;;5.40;;
38717;SDS011;24468;52.128;9.278;2023-11-18T12:23:12;11.73;;;6.43;;
38717;SDS011;24468;52.128;9.278;2023-11-18T12:25:40;7.32;;;5.53;;
38717;SDS011;24468;52.128;9.278;2023-11-18T12:28:07;6.75;;;5.65;;
38717;SDS011;24468;52.128;9.278;2023-11-18T12:35:40;8.82;;;6.20;;
38717;SDS011;24468;52.128;9.278;2023-11-18T12:41:39;5.88;;;4.88;;
38717;SDS011;24468;52.128;9.278;2023-11-18T12:44:15;9.88;;;6.18;;
38717;SDS011;24468;52.128;9.278;2023-11-18T12:46:59;7.93;;;6.40;;
38717;SDS011;24468;52.128;9.278;2023-11-18T12:49:46;9.27;;;6.53;;
38717;SDS011;24468;52.128;9.278;2023-11-18T12:52:19;8.55;;;6.03;;
38717;SDS011;24468;52.128;9.278;2023-11-18T12:54:47;8.65;;;6.85;;
38717;SDS011;24468;52.128;9.278;2023-11-18T12:57:26;14.20;;;9.95;;
38717;SDS011;24468;52.128;9.278;2023-11-18T12:59:56;9.27;;;6.60;;
38717;SDS011;24468;52.128;9.278;2023-11-18T13:02:22;8.77;;;6.03;;
38717;SDS011;24468;52.128;9.278;2023-11-18T13:04:48;11.05;;;7.22;;
38717;SDS011;24468;52.128;9.278;2023-11-18T13:07:18;7.63;;;5.65;;
38717;SDS011;24468;52.128;9.278;2023-11-18T13:09:46;11.85;;;7.63;;
38717;SDS011;24468;52.128;9.278;2023-11-18T13:12:13;7.75;;;5.85;;
38717;SDS011;24468;52.128;9.278;2023-11-18T13:14:40;8.25;;;5.60;;
38717;SDS011;24468;52.128;9.278;2023-11-18T13:17:13;7.85;;;5.40;;
38717;SDS011;24468;52.128;9.278;2023-11-18T13:19:41;7.93;;;7.13;;
38717;SDS011;24468;52.128;9.278;2023-11-18T13:22:09;8.35;;;6.10;;
38717;SDS011;24468;52.128;9.278;2023-11-18T13:24:37;7.78;;;6.57;;
38717;SDS011;24468;52.128;9.278;2023-11-18T13:27:14;8.77;;;6.82;;
38717;SDS011;24468;52.128;9.278;2023-11-18T13:29:43;10.05;;;6.55;;
38717;SDS011;24468;52.128;9.278;2023-11-18T13:32:13;9.15;;;6.40;;
38717;SDS011;24468;52.128;9.278;2023-11-18T13:34:40;10.20;;;7.10;;
38717;SDS011;24468;52.128;9.278;2023-11-18T13:37:07;7.72;;;5.93;;
38717;SDS011;24468;52.128;9.278;2023-11-18T13:39:34;7.97;;;5.97;;
38717;SDS011;24468;52.128;9.278;2023-11-18T13:42:18;12.05;;;6.60;;
38717;SDS011;24468;52.128;9.278;2023-11-18T13:44:46;7.47;;;5.90;;
38717;SDS011;24468;52.128;9.278;2023-11-18T13:47:13;8.95;;;5.53;;
38717;SDS011;24468;52.128;9.278;2023-11-18T13:49:41;5.68;;;4.97;;
38717;SDS011;24468;52.128;9.278;2023-11-18T13:52:07;9.00;;;6.22;;
38717;SDS011;24468;52.128;9.278;2023-11-18T13:54:36;9.45;;;6.65;;
38717;SDS011;24468;52.128;9.278;2023-11-18T13:57:03;9.32;;;5.70;;
38717;SDS011;24468;52.128;9.278;2023-11-18T13:59:30;11.93;;;6.70;;
38717;SDS011;24468;52.128;9.278;2023-11-18T14:01:57;10.73;;;7.13;;
38717;SDS011;24468;52.128;9.278;2023-11-18T14:04:27;9.45;;;6.88;;
38717;SDS011;24468;52.128;9.278;2023-11-18T14:06:57;8.93;;;6.35;;
38717;SDS011;24468;52.128;9.278;2023-11-18T14:09:25;10.57;;;8.02;;
38717;SDS011;24468;52.128;9.278;2023-11-18T14:11:52;17.80;;;13.00;;
38717;SDS011;24468;52.128;9.278;2023-11-18T14:14:21;17.55;;;12.38;;
38717;SDS011;24468;52.128;9.278;2023-11-18T14:16:53;16.25;;;11.80;;
38717;SDS011;24468;52.128;9.278;2023-11-18T14:19:22;20.98;;;13.93;;
38717;SDS011;24468;52.128;9.278;2023-11-18T14:21:49;10.00;;;7.55;;
38717;SDS011;24468;52.128;9.278;2023-11-18T14:24:16;7.75;;;5.40;;
38717;SDS011;24468;52.128;9.278;2023-11-18T14:26:42;5.35;;;4.47;;
38717;SDS011;24468;52.128;9.278;2023-11-18T14:29:11;6.45;;;4.85;;
38717;SDS011;24468;52.128;9.278;2023-11-18T14:31:37;8.20;;;5.20;;
38717;SDS011;24468;52.128;9.278;2023-11-18T14:34:03;6.70;;;5.13;;
38717;SDS011;24468;52.128;9.278;2023-11-18T14:36:29;8.13;;;5.55;;
38717;SDS011;24468;52.128;9.278;2023-11-18T14:38:55;6.90;;;5.65;;
38717;SDS011;24468;52.128;9.278;2023-11-18T14:41:23;9.48;;;7.32;;
38717;SDS011;24468;52.128;9.278;2023-11-18T14:43:51;8.43;;;5.75;;
38717;SDS011;24468;52.128;9.278;2023-11-18T14:46:18;7.10;;;5.70;;
38717;SDS011;24468;52.128;9.278;2023-11-18T14:48:44;7.57;;;5.28;;
38717;SDS011;24468;52.128;9.278;2023-11-18T14:51:10;7.50;;;5.88;;
38717;SDS011;24468;52.128;9.278;2023-11-18T14:53:36;8.27;;;5.90;;
38717;SDS011;24468;52.128;9.278;2023-11-18T14:56:05;8.82;;;6.40;;
38717;SDS011;24468;52.128;9.278;2023-11-18T14:58:31;7.32;;;5.70;;
38717;SDS011;24468;52.128;9.278;2023-11-18T15:00:57;7.18;;;5.72;;
38717;SDS011;24468;52.128;9.278;2023-11-18T15:03:25;7.82;;;5.88;;
38717;SDS011;24468;52.128;9.278;2023-11-18T15:05:50;5.82;;;5.05;;
38717;SDS011;24468;52.128;9.278;2023-11-18T15:08:16;7.18;;;5.30;;